Accueil
METAR-TAF:

METAR-TAF

Aéroports :

Rouen, France

Aéroport Rouen Vallée de Seine

latitude: 49-23N, longitude: 001-11E, altitude: 157 m

Observation

Le bulletin a été fait il y a 16 minutes, à 10:30 UTC
Vent 9 kt de nord-est
Température 1°C
Humidité 75%
Pression 1020 hPa
Visibilité: 7000 m

METAR: LFOP 221030Z AUTO 05009KT 7000 NSC 01/M03 Q1020 NOSIG

Heure: 11:46 (10:46 UTC)

Prévision

Le bulletin a été fait il y a 5 heures et 46 minutes, à 05:00 UTC
Prévision valable du 22 à 06 UTC au 23 à 06 UTC
Vent 10 kt de nord/nord-est
Visibilité: 4000 m
brume
Evoluant progressivement
du 22 à 07 UTC au 22 à 11 UTC
Visibilité: 6000 m
Evoluant progressivement
du 22 à 16 UTC au 22 à 19 UTC
Visibilité: 4000 m
brume

TAF: LFOP 220500Z 2206/2306 03010KT 4000 BR NSC BECMG 2207/2211 6000 NSW BECMG 2216/2219 4000 BR

Observations et prévisions météorologiques de plus de 4000 aéroports (messages METAR et TAF).

Les stations disponibles sont représentées par des disques jaunes et rouges sur la carte.

Passer la souris dessus pour voir le nom de la station.

Cliquer dessus pour voir les observations et prévisions météorologiques.

Pour changer de carte: cliquez sur les boutons verts avec une croix noire pour zoomer, sur le bouton vert avec un tiret pour effectuer un zoom arrière, ou sur les flèches vertes pour les cartes adjacentes.


METAR-TAF: